This is the latest recevied weather packets stored in our database for station/object VK3AFQ-13. If no packets are shown the sender has not sent any weather packets the latest 1 day(s).
| Time | Temp. | Humidity | Pressure | Rain* | Wind** | Luminosity | Snow |
|---|---|---|---|---|---|---|---|
| 1778045463 | 16.67° C | 62% | 1019.8 hPa | - | 2.24 m/s, 129° | - | - |
| 1778044563 | 16.67° C | 62% | 1019.8 hPa | - | 1.34 m/s, 129° | - | - |
| 1778043662 | 16.11° C | 67% | 1019.9 hPa | - | 0.89 m/s, 129° | - | - |
| 1778042763 | 16.11° C | 67% | 1019.9 hPa | - | 1.79 m/s, 129° | - | - |
| 1778041864 | 16.11° C | 64% | 1019.9 hPa | - | 1.34 m/s, 129° | - | - |
| 1778040964 | 16.11° C | 64% | 1020 hPa | - | 1.79 m/s, 129° | - | - |
| 1778040061 | 16.11° C | 64% | 1020.2 hPa | - | 2.68 m/s, 129° | - | - |
| 1778039163 | 16.11° C | 65% | 1020.3 hPa | - | 2.68 m/s, 129° | - | - |
| 1778038263 | 16.11° C | 66% | 1020.4 hPa | - | 1.79 m/s, 129° | - | - |
| 1778037363 | 15.56° C | 68% | 1020.5 hPa | - | 1.34 m/s, 129° | - | - |
| 1778036461 | 16.11° C | 66% | 1020.6 hPa | - | 1.34 m/s, 129° | - | - |
| 1778035564 | 16.11° C | 66% | 1020.9 hPa | - | 2.24 m/s, 129° | - | - |
| 1778034664 | 16.11° C | 69% | 1021.2 hPa | - | 0.89 m/s, 129° | - | - |
| 1778033763 | 16.11° C | 69% | 1021.4 hPa | - | 2.24 m/s, 129° | - | - |
| 1778032862 | 16.11° C | 72% | 1021.5 hPa | - | 1.79 m/s, 129° | - | - |
| 1778031964 | 16.11° C | 72% | 1021.8 hPa | - | 0.89 m/s, 129° | - | - |
| 1778031064 | 15.56° C | 74% | 1022.1 hPa | - | 2.24 m/s, 129° | - | - |
| 1778030163 | 15° C | 75% | 1022.3 hPa | - | 0.45 m/s, 129° | - | - |
| 1778029261 | 14.44° C | 80% | 1022.4 hPa | - | 0.45 m/s, 128° | - | - |
| 1778028364 | 14.44° C | 81% | 1022.4 hPa | - | 0.45 m/s, 129° | - | - |
| 1778027464 | 13.89° C | 83% | 1022.5 hPa | - | 0 m/s | - | - |
| 1778026564 | 13.33° C | 83% | 1022.6 hPa | - | 0.45 m/s, 129° | - | - |
| 1778025661 | 13.33° C | 83% | 1022.6 hPa | - | 0.45 m/s, 129° | - | - |
| 1778024763 | 12.78° C | 84% | 1022.6 hPa | - | 0 m/s | - | - |
| 1778023863 | 12.78° C | 83% | 1022.8 hPa | - | 0.89 m/s, 128° | - | - |
* Rain since midnight (hover to see other rain measurements)
** Current wind speed in m/s (hover to see current wind gust speed)